Hauptseite
METAR-TAF:

METAR-TAF

Flughäfen :

Kairo, Ägypten

Flughafen Kairo

Breite: 30-08N, Länge: 031-24E, Höhe: 64 m

Beobachtung

Neuester Wetterbericht von vor 37 Minuten, um 13:30 UTC
Wind 8 kt aus Nord/Nordwest
Temperatur 29°C
Luftfeuchtigkeit 40%
Luftdruck 1016 hPa
Sichtweite: 6000 m

METAR: HECA 201330Z 33008KT 6000 NSC 29/14 Q1016 NOSIG

Zeit: 16:07 (14:07 UTC)

Prognose

Neuester Wetterbericht von vor 3 Stunden und 7 Minuten, um 11:00 UTC
Gültige Prognose vom 20 um 12 UTC bis 21 um 18 UTC
Wind 10 kt aus Nord
Sichtweite 10 km oder mehr
Leicht bewölkt in der Höhe von 2500 ft
Zeitweise
vom 20 um 22 UTC bis 21 um 06 UTC
Wind 3 kt aus unterschiedlichen Richtungen
Sichtweite: 3000 m
feuchter Dunst

TAF: HECA 201100Z 2012/2118 36010KT 9999 FEW025 TEMPO 2022/2106 VRB03KT 3000 BR NSC

Wetterbeobachtungen und Prognosen von mehr als 4000 Flughäfen (METAR und TAF Bericht).

Die verfügbaren Stationen werden durch gelbe und rote Markierungen auf der Karte dargestellt.

Führen Sie die Maus auf sie, um den Namen der Station zu sehen.

Darauf klicken, um die Beobachtung von Wetterbeobachtungen und Prognosen zu sehen.

Um die Karte zu ändern : klicken Sie auf den grünen Tasten mit einem schwarzen Kreuz Zum Vergrößern, auf den grünen Button mit einem Gedankenstrich zu verkleinern, oder auf die grünen Pfeile für benachbarte Karten.


METAR-TAF: